sensor_id;sensor_type;location;lat;lon;timestamp;temperature;humidity
18575;DHT22;9417;16.484;102.872;2022-10-16T00:00:17;22.20;88.60
18575;DHT22;9417;16.484;102.872;2022-10-16T00:02:24;22.20;88.90
18575;DHT22;9417;16.484;102.872;2022-10-16T00:04:31;22.20;89.20
18575;DHT22;9417;16.484;102.872;2022-10-16T00:06:39;22.30;89.00
18575;DHT22;9417;16.484;102.872;2022-10-16T00:08:46;22.30;88.80
18575;DHT22;9417;16.484;102.872;2022-10-16T00:10:57;22.30;88.80
18575;DHT22;9417;16.484;102.872;2022-10-16T00:13:07;22.30;88.60
18575;DHT22;9417;16.484;102.872;2022-10-16T00:15:14;22.40;87.80
18575;DHT22;9417;16.484;102.872;2022-10-16T00:17:21;22.40;86.70
18575;DHT22;9417;16.484;102.872;2022-10-16T00:19:28;22.40;84.60
18575;DHT22;9417;16.484;102.872;2022-10-16T00:21:36;22.40;84.80
18575;DHT22;9417;16.484;102.872;2022-10-16T00:23:43;22.40;83.30
18575;DHT22;9417;16.484;102.872;2022-10-16T00:25:56;22.30;81.40
18575;DHT22;9417;16.484;102.872;2022-10-16T00:28:06;22.30;80.70
18575;DHT22;9417;16.484;102.872;2022-10-16T00:30:13;22.30;80.00
18575;DHT22;9417;16.484;102.872;2022-10-16T00:32:20;22.30;79.80
18575;DHT22;9417;16.484;102.872;2022-10-16T00:34:27;22.30;78.90
18575;DHT22;9417;16.484;102.872;2022-10-16T00:36:34;22.40;78.40
18575;DHT22;9417;16.484;102.872;2022-10-16T00:38:41;22.40;78.00
18575;DHT22;9417;16.484;102.872;2022-10-16T00:40:48;22.40;78.00
18575;DHT22;9417;16.484;102.872;2022-10-16T00:42:56;22.40;79.30
18575;DHT22;9417;16.484;102.872;2022-10-16T00:45:05;22.40;78.30
18575;DHT22;9417;16.484;102.872;2022-10-16T00:47:15;22.40;78.20
18575;DHT22;9417;16.484;102.872;2022-10-16T00:49:24;22.50;78.20
18575;DHT22;9417;16.484;102.872;2022-10-16T00:51:33;22.50;76.90
18575;DHT22;9417;16.484;102.872;2022-10-16T00:53:41;22.40;76.50
18575;DHT22;9417;16.484;102.872;2022-10-16T00:55:48;22.40;74.90
18575;DHT22;9417;16.484;102.872;2022-10-16T00:57:55;22.40;75.50
18575;DHT22;9417;16.484;102.872;2022-10-16T01:00:07;22.40;74.80
18575;DHT22;9417;16.484;102.872;2022-10-16T01:02:15;22.40;75.30
18575;DHT22;9417;16.484;102.872;2022-10-16T01:04:23;22.40;74.70
18575;DHT22;9417;16.484;102.872;2022-10-16T01:06:36;22.40;75.90
18575;DHT22;9417;16.484;102.872;2022-10-16T01:08:52;22.40;74.90
18575;DHT22;9417;16.484;102.872;2022-10-16T01:11:03;22.40;76.10
18575;DHT22;9417;16.484;102.872;2022-10-16T01:13:17;22.30;74.90
18575;DHT22;9417;16.484;102.872;2022-10-16T01:15:29;22.30;76.00
18575;DHT22;9417;16.484;102.872;2022-10-16T01:17:42;22.30;76.00
18575;DHT22;9417;16.484;102.872;2022-10-16T01:20:03;22.40;76.90
18575;DHT22;9417;16.484;102.872;2022-10-16T01:22:14;22.40;76.10
18575;DHT22;9417;16.484;102.872;2022-10-16T01:24:31;22.40;77.30
18575;DHT22;9417;16.484;102.872;2022-10-16T01:26:52;22.40;77.30
18575;DHT22;9417;16.484;102.872;2022-10-16T01:29:05;22.40;77.60
18575;DHT22;9417;16.484;102.872;2022-10-16T01:31:17;22.40;77.80
18575;DHT22;9417;16.484;102.872;2022-10-16T01:33:30;22.40;77.00
18575;DHT22;9417;16.484;102.872;2022-10-16T01:35:44;22.40;76.50
18575;DHT22;9417;16.484;102.872;2022-10-16T01:37:55;22.40;75.70
18575;DHT22;9417;16.484;102.872;2022-10-16T01:40:08;22.40;76.90
18575;DHT22;9417;16.484;102.872;2022-10-16T01:42:20;22.40;77.20
18575;DHT22;9417;16.484;102.872;2022-10-16T01:44:32;22.40;77.00
18575;DHT22;9417;16.484;102.872;2022-10-16T01:46:42;22.50;77.70
18575;DHT22;9417;16.484;102.872;2022-10-16T01:48:51;22.50;78.10
18575;DHT22;9417;16.484;102.872;2022-10-16T01:51:02;22.50;79.10
18575;DHT22;9417;16.484;102.872;2022-10-16T01:53:10;22.50;77.80
18575;DHT22;9417;16.484;102.872;2022-10-16T01:55:22;22.50;77.40
18575;DHT22;9417;16.484;102.872;2022-10-16T01:57:30;22.50;78.80
18575;DHT22;9417;16.484;102.872;2022-10-16T01:59:43;22.50;78.50
18575;DHT22;9417;16.484;102.872;2022-10-16T02:01:54;22.60;78.70
18575;DHT22;9417;16.484;102.872;2022-10-16T02:04:07;22.60;79.50
18575;DHT22;9417;16.484;102.872;2022-10-16T02:06:15;22.60;80.10
18575;DHT22;9417;16.484;102.872;2022-10-16T02:08:24;22.60;80.30
18575;DHT22;9417;16.484;102.872;2022-10-16T02:10:33;22.60;80.00
18575;DHT22;9417;16.484;102.872;2022-10-16T02:12:44;22.60;79.80
18575;DHT22;9417;16.484;102.872;2022-10-16T02:14:55;22.60;80.20
18575;DHT22;9417;16.484;102.872;2022-10-16T02:17:09;22.60;80.40
18575;DHT22;9417;16.484;102.872;2022-10-16T02:19:17;22.60;80.00
18575;DHT22;9417;16.484;102.872;2022-10-16T02:21:28;22.60;79.80
18575;DHT22;9417;16.484;102.872;2022-10-16T02:23:40;22.60;79.20
18575;DHT22;9417;16.484;102.872;2022-10-16T02:25:51;22.60;79.50
18575;DHT22;9417;16.484;102.872;2022-10-16T02:28:02;22.70;78.20
18575;DHT22;9417;16.484;102.872;2022-10-16T02:30:16;22.70;78.10
18575;DHT22;9417;16.484;102.872;2022-10-16T02:32:29;22.70;78.20
18575;DHT22;9417;16.484;102.872;2022-10-16T02:34:38;22.70;78.40
18575;DHT22;9417;16.484;102.872;2022-10-16T02:36:47;22.70;78.60
18575;DHT22;9417;16.484;102.872;2022-10-16T02:38:55;22.70;77.80
18575;DHT22;9417;16.484;102.872;2022-10-16T02:41:04;22.70;78.40
18575;DHT22;9417;16.484;102.872;2022-10-16T02:43:12;22.70;78.20
18575;DHT22;9417;16.484;102.872;2022-10-16T02:45:22;22.70;77.70
18575;DHT22;9417;16.484;102.872;2022-10-16T02:47:29;22.70;77.60
18575;DHT22;9417;16.484;102.872;2022-10-16T02:49:36;22.80;78.80
18575;DHT22;9417;16.484;102.872;2022-10-16T02:51:43;22.80;78.50
18575;DHT22;9417;16.484;102.872;2022-10-16T02:53:50;22.90;78.30
18575;DHT22;9417;16.484;102.872;2022-10-16T02:55:57;23.00;79.30
18575;DHT22;9417;16.484;102.872;2022-10-16T02:58:04;23.00;77.50
18575;DHT22;9417;16.484;102.872;2022-10-16T03:00:13;23.00;77.10
18575;DHT22;9417;16.484;102.872;2022-10-16T03:02:22;23.00;77.00
18575;DHT22;9417;16.484;102.872;2022-10-16T03:04:29;23.10;77.70
18575;DHT22;9417;16.484;102.872;2022-10-16T03:06:36;23.10;77.90
18575;DHT22;9417;16.484;102.872;2022-10-16T03:08:43;23.10;77.40
18575;DHT22;9417;16.484;102.872;2022-10-16T03:10:50;23.10;77.70
18575;DHT22;9417;16.484;102.872;2022-10-16T03:12:58;23.10;77.60
18575;DHT22;9417;16.484;102.872;2022-10-16T03:15:06;23.10;78.50
18575;DHT22;9417;16.484;102.872;2022-10-16T03:17:14;23.10;78.50
18575;DHT22;9417;16.484;102.872;2022-10-16T03:19:23;23.10;79.10
18575;DHT22;9417;16.484;102.872;2022-10-16T03:21:30;23.10;78.20
18575;DHT22;9417;16.484;102.872;2022-10-16T03:23:37;23.10;77.10
18575;DHT22;9417;16.484;102.872;2022-10-16T03:25:44;23.20;77.80
18575;DHT22;9417;16.484;102.872;2022-10-16T03:27:51;23.20;77.90
18575;DHT22;9417;16.484;102.872;2022-10-16T03:29:59;23.20;77.80
18575;DHT22;9417;16.484;102.872;2022-10-16T03:32:06;23.30;77.10
18575;DHT22;9417;16.484;102.872;2022-10-16T03:34:13;23.40;77.30
18575;DHT22;9417;16.484;102.872;2022-10-16T03:36:22;23.50;77.80
18575;DHT22;9417;16.484;102.872;2022-10-16T03:38:29;23.50;76.90
18575;DHT22;9417;16.484;102.872;2022-10-16T03:40:36;23.60;76.00
18575;DHT22;9417;16.484;102.872;2022-10-16T03:42:43;23.70;75.90
18575;DHT22;9417;16.484;102.872;2022-10-16T03:44:50;23.70;75.70
18575;DHT22;9417;16.484;102.872;2022-10-16T03:46:57;23.80;74.90
18575;DHT22;9417;16.484;102.872;2022-10-16T03:49:04;23.80;74.40
18575;DHT22;9417;16.484;102.872;2022-10-16T03:51:12;23.90;75.70
18575;DHT22;9417;16.484;102.872;2022-10-16T03:53:21;24.00;76.70
18575;DHT22;9417;16.484;102.872;2022-10-16T03:55:28;24.00;76.20
18575;DHT22;9417;16.484;102.872;2022-10-16T03:57:35;24.10;75.60
18575;DHT22;9417;16.484;102.872;2022-10-16T03:59:42;24.20;74.90
18575;DHT22;9417;16.484;102.872;2022-10-16T04:01:49;24.30;76.00
18575;DHT22;9417;16.484;102.872;2022-10-16T04:03:56;24.30;75.20
18575;DHT22;9417;16.484;102.872;2022-10-16T04:06:03;24.30;73.30
18575;DHT22;9417;16.484;102.872;2022-10-16T04:08:10;24.20;73.30
18575;DHT22;9417;16.484;102.872;2022-10-16T04:10:19;24.20;74.40
18575;DHT22;9417;16.484;102.872;2022-10-16T04:12:26;24.20;73.70
18575;DHT22;9417;16.484;102.872;2022-10-16T04:14:34;24.10;73.90
18575;DHT22;9417;16.484;102.872;2022-10-16T04:16:41;24.10;73.70
18575;DHT22;9417;16.484;102.872;2022-10-16T04:18:48;24.10;74.30
18575;DHT22;9417;16.484;102.872;2022-10-16T04:20:55;24.10;73.90
18575;DHT22;9417;16.484;102.872;2022-10-16T04:23:02;24.10;74.30
18575;DHT22;9417;16.484;102.872;2022-10-16T04:25:09;24.10;74.60
18575;DHT22;9417;16.484;102.872;2022-10-16T04:27:18;24.10;72.80
18575;DHT22;9417;16.484;102.872;2022-10-16T04:29:25;24.10;73.50
18575;DHT22;9417;16.484;102.872;2022-10-16T04:31:32;24.10;73.60
18575;DHT22;9417;16.484;102.872;2022-10-16T04:33:39;24.10;74.20
18575;DHT22;9417;16.484;102.872;2022-10-16T04:35:55;24.10;73.80
18575;DHT22;9417;16.484;102.872;2022-10-16T04:38:02;24.10;74.10
18575;DHT22;9417;16.484;102.872;2022-10-16T04:40:10;24.10;75.10
18575;DHT22;9417;16.484;102.872;2022-10-16T04:42:19;24.10;75.00
18575;DHT22;9417;16.484;102.872;2022-10-16T04:44:27;24.10;73.20
18575;DHT22;9417;16.484;102.872;2022-10-16T04:46:33;24.10;73.70
18575;DHT22;9417;16.484;102.872;2022-10-16T04:48:41;24.10;74.50
18575;DHT22;9417;16.484;102.872;2022-10-16T04:50:48;24.10;74.10
18575;DHT22;9417;16.484;102.872;2022-10-16T04:52:58;24.10;74.30
18575;DHT22;9417;16.484;102.872;2022-10-16T04:55:05;24.10;74.40
18575;DHT22;9417;16.484;102.872;2022-10-16T04:57:13;24.20;75.20
18575;DHT22;9417;16.484;102.872;2022-10-16T04:59:22;24.20;74.90
18575;DHT22;9417;16.484;102.872;2022-10-16T05:01:29;24.30;74.90
18575;DHT22;9417;16.484;102.872;2022-10-16T05:03:36;24.40;74.70
18575;DHT22;9417;16.484;102.872;2022-10-16T05:05:44;24.50;74.40
18575;DHT22;9417;16.484;102.872;2022-10-16T05:07:52;24.50;74.50
18575;DHT22;9417;16.484;102.872;2022-10-16T05:09:59;24.50;73.80
18575;DHT22;9417;16.484;102.872;2022-10-16T05:12:06;24.60;74.10
18575;DHT22;9417;16.484;102.872;2022-10-16T05:14:13;24.70;75.10
18575;DHT22;9417;16.484;102.872;2022-10-16T05:16:22;24.70;74.30
18575;DHT22;9417;16.484;102.872;2022-10-16T05:18:28;24.80;73.80
18575;DHT22;9417;16.484;102.872;2022-10-16T05:20:36;24.80;73.40
18575;DHT22;9417;16.484;102.872;2022-10-16T05:22:43;24.80;73.40
18575;DHT22;9417;16.484;102.872;2022-10-16T05:24:50;24.80;73.40
18575;DHT22;9417;16.484;102.872;2022-10-16T05:26:57;24.80;72.50
18575;DHT22;9417;16.484;102.872;2022-10-16T05:29:05;24.80;73.20
18575;DHT22;9417;16.484;102.872;2022-10-16T05:31:11;24.80;74.20
18575;DHT22;9417;16.484;102.872;2022-10-16T05:33:20;24.80;74.60
18575;DHT22;9417;16.484;102.872;2022-10-16T05:35:28;24.90;74.40
18575;DHT22;9417;16.484;102.872;2022-10-16T05:37:35;24.90;73.50
18575;DHT22;9417;16.484;102.872;2022-10-16T05:39:42;24.90;73.10
18575;DHT22;9417;16.484;102.872;2022-10-16T05:41:50;24.90;73.20
18575;DHT22;9417;16.484;102.872;2022-10-16T05:43:57;24.90;73.20
18575;DHT22;9417;16.484;102.872;2022-10-16T05:46:05;24.90;72.80
18575;DHT22;9417;16.484;102.872;2022-10-16T05:48:12;24.90;72.20
18575;DHT22;9417;16.484;102.872;2022-10-16T05:50:21;24.90;72.50
18575;DHT22;9417;16.484;102.872;2022-10-16T05:52:28;24.90;71.80
18575;DHT22;9417;16.484;102.872;2022-10-16T05:54:35;24.90;71.30
18575;DHT22;9417;16.484;102.872;2022-10-16T05:56:42;24.90;71.50
18575;DHT22;9417;16.484;102.872;2022-10-16T05:58:49;24.90;72.50
18575;DHT22;9417;16.484;102.872;2022-10-16T06:00:57;24.80;72.50
18575;DHT22;9417;16.484;102.872;2022-10-16T06:03:04;24.80;73.10
18575;DHT22;9417;16.484;102.872;2022-10-16T06:05:11;24.70;72.60
18575;DHT22;9417;16.484;102.872;2022-10-16T06:07:20;24.70;73.00
18575;DHT22;9417;16.484;102.872;2022-10-16T06:09:28;24.70;72.80
18575;DHT22;9417;16.484;102.872;2022-10-16T06:11:35;24.70;73.20
18575;DHT22;9417;16.484;102.872;2022-10-16T06:13:43;24.70;74.10
18575;DHT22;9417;16.484;102.872;2022-10-16T06:15:50;24.80;74.20
18575;DHT22;9417;16.484;102.872;2022-10-16T06:17:58;24.80;73.90
18575;DHT22;9417;16.484;102.872;2022-10-16T06:20:05;24.90;73.50
18575;DHT22;9417;16.484;102.872;2022-10-16T06:22:12;24.90;73.80
18575;DHT22;9417;16.484;102.872;2022-10-16T06:24:21;25.00;74.60
18575;DHT22;9417;16.484;102.872;2022-10-16T06:26:30;25.00;75.00
18575;DHT22;9417;16.484;102.872;2022-10-16T06:28:37;25.00;74.80
18575;DHT22;9417;16.484;102.872;2022-10-16T06:30:44;25.10;73.90
18575;DHT22;9417;16.484;102.872;2022-10-16T06:32:51;25.10;72.90
18575;DHT22;9417;16.484;102.872;2022-10-16T06:35:03;25.10;72.80
18575;DHT22;9417;16.484;102.872;2022-10-16T06:37:10;25.20;71.90
18575;DHT22;9417;16.484;102.872;2022-10-16T06:39:19;25.20;72.00
18575;DHT22;9417;16.484;102.872;2022-10-16T06:41:26;25.30;71.90
18575;DHT22;9417;16.484;102.872;2022-10-16T06:43:41;25.30;71.80
18575;DHT22;9417;16.484;102.872;2022-10-16T06:45:52;25.30;71.10
18575;DHT22;9417;16.484;102.872;2022-10-16T06:47:59;25.40;71.20
18575;DHT22;9417;16.484;102.872;2022-10-16T06:50:07;25.50;71.70
18575;DHT22;9417;16.484;102.872;2022-10-16T06:52:14;25.50;71.80
18575;DHT22;9417;16.484;102.872;2022-10-16T06:54:23;25.50;71.10
18575;DHT22;9417;16.484;102.872;2022-10-16T06:56:31;25.50;70.00
18575;DHT22;9417;16.484;102.872;2022-10-16T06:58:38;25.50;69.70
18575;DHT22;9417;16.484;102.872;2022-10-16T07:00:45;25.50;69.80
18575;DHT22;9417;16.484;102.872;2022-10-16T07:02:52;25.50;70.00
18575;DHT22;9417;16.484;102.872;2022-10-16T07:04:59;25.50;69.30
18575;DHT22;9417;16.484;102.872;2022-10-16T07:07:06;25.50;69.30
18575;DHT22;9417;16.484;102.872;2022-10-16T07:09:13;25.50;69.80
18575;DHT22;9417;16.484;102.872;2022-10-16T07:11:23;25.50;70.50
18575;DHT22;9417;16.484;102.872;2022-10-16T07:13:32;25.50;71.40
18575;DHT22;9417;16.484;102.872;2022-10-16T07:15:39;25.50;70.50
18575;DHT22;9417;16.484;102.872;2022-10-16T07:17:46;25.40;71.10
18575;DHT22;9417;16.484;102.872;2022-10-16T07:19:53;25.40;70.30
18575;DHT22;9417;16.484;102.872;2022-10-16T07:22:00;25.40;69.50
18575;DHT22;9417;16.484;102.872;2022-10-16T07:24:11;25.50;69.90
18575;DHT22;9417;16.484;102.872;2022-10-16T07:26:18;25.50;70.50
18575;DHT22;9417;16.484;102.872;2022-10-16T07:28:27;25.50;70.80
18575;DHT22;9417;16.484;102.872;2022-10-16T07:30:35;25.60;71.10
18575;DHT22;9417;16.484;102.872;2022-10-16T07:32:43;25.60;70.80
18575;DHT22;9417;16.484;102.872;2022-10-16T07:34:50;25.60;70.60
18575;DHT22;9417;16.484;102.872;2022-10-16T07:36:57;25.60;69.50
18575;DHT22;9417;16.484;102.872;2022-10-16T07:39:04;25.60;70.90
18575;DHT22;9417;16.484;102.872;2022-10-16T07:41:13;25.60;70.50
18575;DHT22;9417;16.484;102.872;2022-10-16T07:43:20;25.60;69.70
18575;DHT22;9417;16.484;102.872;2022-10-16T07:45:29;25.50;70.20
18575;DHT22;9417;16.484;102.872;2022-10-16T07:47:36;25.50;70.70
18575;DHT22;9417;16.484;102.872;2022-10-16T07:49:43;25.50;71.40
18575;DHT22;9417;16.484;102.872;2022-10-16T07:51:50;25.40;70.90
18575;DHT22;9417;16.484;102.872;2022-10-16T07:53:57;25.50;70.40
18575;DHT22;9417;16.484;102.872;2022-10-16T07:56:05;25.50;70.70
18575;DHT22;9417;16.484;102.872;2022-10-16T07:58:13;25.50;70.50
18575;DHT22;9417;16.484;102.872;2022-10-16T08:00:20;25.50;71.60
18575;DHT22;9417;16.484;102.872;2022-10-16T08:02:28;25.50;71.30
18575;DHT22;9417;16.484;102.872;2022-10-16T08:04:35;25.50;71.80
18575;DHT22;9417;16.484;102.872;2022-10-16T08:06:42;25.50;72.00
18575;DHT22;9417;16.484;102.872;2022-10-16T08:08:50;25.50;72.00
18575;DHT22;9417;16.484;102.872;2022-10-16T08:10:57;25.50;71.60
18575;DHT22;9417;16.484;102.872;2022-10-16T08:13:04;25.50;71.10
18575;DHT22;9417;16.484;102.872;2022-10-16T08:15:11;25.50;71.50
18575;DHT22;9417;16.484;102.872;2022-10-16T08:17:19;25.50;72.10
18575;DHT22;9417;16.484;102.872;2022-10-16T08:19:28;25.50;71.50
18575;DHT22;9417;16.484;102.872;2022-10-16T08:21:36;25.50;72.30
18575;DHT22;9417;16.484;102.872;2022-10-16T08:23:43;25.50;71.70
18575;DHT22;9417;16.484;102.872;2022-10-16T08:25:54;25.60;71.30
18575;DHT22;9417;16.484;102.872;2022-10-16T08:28:03;25.60;71.40
18575;DHT22;9417;16.484;102.872;2022-10-16T08:30:11;25.50;71.90
18575;DHT22;9417;16.484;102.872;2022-10-16T08:32:18;25.50;72.30
18575;DHT22;9417;16.484;102.872;2022-10-16T08:34:31;25.50;71.90
18575;DHT22;9417;16.484;102.872;2022-10-16T08:36:39;25.50;72.30
18575;DHT22;9417;16.484;102.872;2022-10-16T08:38:48;25.50;72.60
18575;DHT22;9417;16.484;102.872;2022-10-16T08:41:09;25.50;72.30
18575;DHT22;9417;16.484;102.872;2022-10-16T08:43:28;25.50;72.40
18575;DHT22;9417;16.484;102.872;2022-10-16T08:45:44;25.50;72.20
18575;DHT22;9417;16.484;102.872;2022-10-16T08:48:05;25.50;72.70
18575;DHT22;9417;16.484;102.872;2022-10-16T08:50:21;25.50;73.20
18575;DHT22;9417;16.484;102.872;2022-10-16T08:52:31;25.50;72.50
18575;DHT22;9417;16.484;102.872;2022-10-16T08:54:43;25.60;72.80
18575;DHT22;9417;16.484;102.872;2022-10-16T08:56:53;25.60;72.50
18575;DHT22;9417;16.484;102.872;2022-10-16T08:59:01;25.60;72.20
18575;DHT22;9417;16.484;102.872;2022-10-16T09:01:12;25.60;72.00
18575;DHT22;9417;16.484;102.872;2022-10-16T09:03:30;25.60;71.80
18575;DHT22;9417;16.484;102.872;2022-10-16T09:05:54;25.60;71.90
18575;DHT22;9417;16.484;102.872;2022-10-16T09:08:11;25.60;72.00
18575;DHT22;9417;16.484;102.872;2022-10-16T09:10:32;25.60;72.60
18575;DHT22;9417;16.484;102.872;2022-10-16T09:12:50;25.50;73.50
18575;DHT22;9417;16.484;102.872;2022-10-16T09:15:05;25.50;72.80
18575;DHT22;9417;16.484;102.872;2022-10-16T09:17:24;25.50;73.00
18575;DHT22;9417;16.484;102.872;2022-10-16T09:19:38;25.50;73.00
18575;DHT22;9417;16.484;102.872;2022-10-16T09:21:49;25.40;72.60
18575;DHT22;9417;16.484;102.872;2022-10-16T09:23:59;25.40;72.90
18575;DHT22;9417;16.484;102.872;2022-10-16T09:26:13;25.40;73.70
18575;DHT22;9417;16.484;102.872;2022-10-16T09:28:22;25.40;74.30
18575;DHT22;9417;16.484;102.872;2022-10-16T09:30:29;25.40;74.90
18575;DHT22;9417;16.484;102.872;2022-10-16T09:32:39;25.30;75.30
18575;DHT22;9417;16.484;102.872;2022-10-16T09:34:49;25.30;75.80
18575;DHT22;9417;16.484;102.872;2022-10-16T09:37:00;25.30;76.30
18575;DHT22;9417;16.484;102.872;2022-10-16T09:39:09;25.30;76.80
18575;DHT22;9417;16.484;102.872;2022-10-16T09:41:18;25.30;78.00
18575;DHT22;9417;16.484;102.872;2022-10-16T09:43:30;25.20;77.60
18575;DHT22;9417;16.484;102.872;2022-10-16T09:45:37;25.10;77.00
18575;DHT22;9417;16.484;102.872;2022-10-16T09:47:45;25.10;77.70
18575;DHT22;9417;16.484;102.872;2022-10-16T09:49:59;25.10;77.60
18575;DHT22;9417;16.484;102.872;2022-10-16T09:52:13;25.10;77.60
18575;DHT22;9417;16.484;102.872;2022-10-16T09:54:21;25.10;77.80
18575;DHT22;9417;16.484;102.872;2022-10-16T09:56:29;25.00;78.20
18575;DHT22;9417;16.484;102.872;2022-10-16T09:58:37;25.00;77.90
18575;DHT22;9417;16.484;102.872;2022-10-16T10:00:49;25.00;78.00
18575;DHT22;9417;16.484;102.872;2022-10-16T10:02:58;25.00;78.20
18575;DHT22;9417;16.484;102.872;2022-10-16T10:05:06;25.00;78.00
18575;DHT22;9417;16.484;102.872;2022-10-16T10:07:28;25.00;78.00
18575;DHT22;9417;16.484;102.872;2022-10-16T10:09:39;25.00;78.00
18575;DHT22;9417;16.484;102.872;2022-10-16T10:11:52;25.00;78.10
18575;DHT22;9417;16.484;102.872;2022-10-16T10:14:05;25.00;78.20
18575;DHT22;9417;16.484;102.872;2022-10-16T10:16:12;25.00;78.50
18575;DHT22;9417;16.484;102.872;2022-10-16T10:18:30;24.90;78.70
18575;DHT22;9417;16.484;102.872;2022-10-16T10:20:37;24.90;79.20
18575;DHT22;9417;16.484;102.872;2022-10-16T10:22:46;24.90;79.40
18575;DHT22;9417;16.484;102.872;2022-10-16T10:27:19;24.80;79.80
18575;DHT22;9417;16.484;102.872;2022-10-16T10:29:37;24.80;80.00
18575;DHT22;9417;16.484;102.872;2022-10-16T10:31:55;24.80;80.10
18575;DHT22;9417;16.484;102.872;2022-10-16T10:34:17;24.80;80.40
18575;DHT22;9417;16.484;102.872;2022-10-16T10:36:34;24.80;80.90
18575;DHT22;9417;16.484;102.872;2022-10-16T10:38:49;24.70;81.10
18575;DHT22;9417;16.484;102.872;2022-10-16T10:41:06;24.70;81.40
18575;DHT22;9417;16.484;102.872;2022-10-16T10:43:28;24.70;81.70
18575;DHT22;9417;16.484;102.872;2022-10-16T10:45:41;24.60;82.10
18575;DHT22;9417;16.484;102.872;2022-10-16T10:48:05;24.60;82.50
18575;DHT22;9417;16.484;102.872;2022-10-16T10:50:20;24.60;82.50
18575;DHT22;9417;16.484;102.872;2022-10-16T10:52:46;24.60;82.40
18575;DHT22;9417;16.484;102.872;2022-10-16T10:55:02;24.50;81.80
18575;DHT22;9417;16.484;102.872;2022-10-16T10:57:21;24.50;81.70
18575;DHT22;9417;16.484;102.872;2022-10-16T10:59:54;24.50;82.10
18575;DHT22;9417;16.484;102.872;2022-10-16T11:02:13;24.50;83.10
18575;DHT22;9417;16.484;102.872;2022-10-16T11:07:09;24.50;82.90
18575;DHT22;9417;16.484;102.872;2022-10-16T11:09:21;24.40;83.80
18575;DHT22;9417;16.484;102.872;2022-10-16T11:11:34;24.40;84.30
18575;DHT22;9417;16.484;102.872;2022-10-16T11:13:42;24.40;84.60
18575;DHT22;9417;16.484;102.872;2022-10-16T11:15:52;24.30;86.00
18575;DHT22;9417;16.484;102.872;2022-10-16T11:18:05;24.30;85.20
18575;DHT22;9417;16.484;102.872;2022-10-16T11:20:16;24.30;85.30
18575;DHT22;9417;16.484;102.872;2022-10-16T11:22:24;24.20;86.00
18575;DHT22;9417;16.484;102.872;2022-10-16T11:24:40;24.20;87.60
18575;DHT22;9417;16.484;102.872;2022-10-16T11:26:53;24.10;86.30
18575;DHT22;9417;16.484;102.872;2022-10-16T11:29:02;24.20;86.10
18575;DHT22;9417;16.484;102.872;2022-10-16T11:31:15;24.10;85.70
18575;DHT22;9417;16.484;102.872;2022-10-16T11:33:32;24.10;85.60
18575;DHT22;9417;16.484;102.872;2022-10-16T11:35:44;24.20;85.70
18575;DHT22;9417;16.484;102.872;2022-10-16T11:37:52;24.10;85.80
18575;DHT22;9417;16.484;102.872;2022-10-16T11:40:10;24.20;85.50
18575;DHT22;9417;16.484;102.872;2022-10-16T11:42:30;24.10;85.10
18575;DHT22;9417;16.484;102.872;2022-10-16T11:44:53;24.10;84.80
18575;DHT22;9417;16.484;102.872;2022-10-16T11:47:11;24.10;84.60
18575;DHT22;9417;16.484;102.872;2022-10-16T11:49:40;24.10;84.80
18575;DHT22;9417;16.484;102.872;2022-10-16T11:51:54;24.10;84.70
18575;DHT22;9417;16.484;102.872;2022-10-16T11:54:08;24.10;85.10
18575;DHT22;9417;16.484;102.872;2022-10-16T11:56:22;24.10;85.70
18575;DHT22;9417;16.484;102.872;2022-10-16T11:58:35;24.10;86.60
18575;DHT22;9417;16.484;102.872;2022-10-16T12:00:51;24.10;87.40
18575;DHT22;9417;16.484;102.872;2022-10-16T12:03:05;24.00;87.80
18575;DHT22;9417;16.484;102.872;2022-10-16T12:05:27;24.00;88.20
18575;DHT22;9417;16.484;102.872;2022-10-16T12:07:41;24.00;88.60
18575;DHT22;9417;16.484;102.872;2022-10-16T12:09:50;23.90;88.60
18575;DHT22;9417;16.484;102.872;2022-10-16T12:11:57;23.90;88.70
18575;DHT22;9417;16.484;102.872;2022-10-16T12:14:22;23.90;88.40
18575;DHT22;9417;16.484;102.872;2022-10-16T12:16:54;23.90;88.80
18575;DHT22;9417;16.484;102.872;2022-10-16T12:19:13;23.80;89.30
18575;DHT22;9417;16.484;102.872;2022-10-16T12:21:30;23.80;89.70
18575;DHT22;9417;16.484;102.872;2022-10-16T12:23:39;23.80;90.00
18575;DHT22;9417;16.484;102.872;2022-10-16T12:25:55;23.90;90.10
18575;DHT22;9417;16.484;102.872;2022-10-16T12:28:04;23.80;90.20
18575;DHT22;9417;16.484;102.872;2022-10-16T12:30:23;23.80;90.40
18575;DHT22;9417;16.484;102.872;2022-10-16T12:32:36;23.80;90.50
18575;DHT22;9417;16.484;102.872;2022-10-16T12:34:50;23.70;90.60
18575;DHT22;9417;16.484;102.872;2022-10-16T12:37:09;23.70;90.80
18575;DHT22;9417;16.484;102.872;2022-10-16T12:39:22;23.70;91.10
18575;DHT22;9417;16.484;102.872;2022-10-16T12:41:30;23.70;91.30
18575;DHT22;9417;16.484;102.872;2022-10-16T12:43:40;23.70;91.50
18575;DHT22;9417;16.484;102.872;2022-10-16T12:46:00;23.60;91.70
18575;DHT22;9417;16.484;102.872;2022-10-16T12:48:20;23.60;92.00
18575;DHT22;9417;16.484;102.872;2022-10-16T12:50:39;23.60;92.50
18575;DHT22;9417;16.484;102.872;2022-10-16T12:52:47;23.60;92.70
18575;DHT22;9417;16.484;102.872;2022-10-16T12:54:56;23.60;93.00
18575;DHT22;9417;16.484;102.872;2022-10-16T12:57:18;23.60;93.00
18575;DHT22;9417;16.484;102.872;2022-10-16T12:59:43;23.50;93.50
18575;DHT22;9417;16.484;102.872;2022-10-16T13:02:08;23.50;93.70
18575;DHT22;9417;16.484;102.872;2022-10-16T13:04:47;23.50;93.80
18575;DHT22;9417;16.484;102.872;2022-10-16T13:07:02;23.40;94.10
18575;DHT22;9417;16.484;102.872;2022-10-16T13:09:33;23.40;94.00
18575;DHT22;9417;16.484;102.872;2022-10-16T13:11:55;23.40;94.60
18575;DHT22;9417;16.484;102.872;2022-10-16T13:14:18;23.40;94.90
18575;DHT22;9417;16.484;102.872;2022-10-16T13:16:35;23.30;95.20
18575;DHT22;9417;16.484;102.872;2022-10-16T13:18:54;23.30;95.60
18575;DHT22;9417;16.484;102.872;2022-10-16T13:21:12;23.20;95.80
18575;DHT22;9417;16.484;102.872;2022-10-16T13:23:29;23.20;95.90
18575;DHT22;9417;16.484;102.872;2022-10-16T13:25:48;23.30;96.00
18575;DHT22;9417;16.484;102.872;2022-10-16T13:28:05;23.20;96.30
18575;DHT22;9417;16.484;102.872;2022-10-16T13:30:16;23.30;96.40
18575;DHT22;9417;16.484;102.872;2022-10-16T13:32:28;23.20;96.40
18575;DHT22;9417;16.484;102.872;2022-10-16T13:34:44;23.30;96.40
18575;DHT22;9417;16.484;102.872;2022-10-16T13:36:52;23.30;96.60